TFM - Tactical Decision Aid
ID: Runway Winds: CIG/VIS Threshold:

KPHX - Phoenix/Sky Harbor, AZ, US

Updated at: 1752 UTC 23 Apr 2019
Latest TAF at: 1720 UTC 23 Apr 2019

TAF Board

Time1651Z 23/18Z 23/19Z 23/20Z 23/21Z 23/22Z 23/23Z 24/00Z 24/01Z 24/02Z 24/03Z 24/04Z 24/05Z 24/06Z>>
Type OBS PRVL PRVL PRVL PRVL PRVL PRVL
  [TEMP]  
PRVL
  [TEMP]  
PRVL PRVL PRVL PRVL PRVL PRVL
VIS 10 >6 >6 >6 >6 >6 >6 >6 >6 >6 >6 >6 >6 >6
CIG 210 250 250 150 150 150 100
  [100]  
100
  [100]  
100 100 100 150 150 150
Cover BKN BKN BKN BKN BKN BKN OVC
  [OVC]  
OVC
  [OVC]  
OVC OVC OVC BKN BKN BKN
FltCat VFR VFR VFR VFR VFR VFR VFR
  [VFR]  
VFR
  [VFR]  
VFR VFR VFR VFR VFR VFR
WX -- -- -- -- -- -- VCSH
  [--]  
VCSH
  [--]  
VCSH VCSH VCSH -- -- --
WDir 90 90 90 290 290 290 70
[70]
70
[70]
70 70 70 90 90 90
WSpd 6 6 6 8 8 8 14
  [25]  
14
  [25]  
14 14 14 8 8 8
WGst -- -- -- -- -- -- 25
  [35]  
25
  [35]  
25 25 25 -- -- --

TDA Impact Legend

  None Marginal Slight Moderate High
Visibility (sm) >5 3≤X≤5 1.25≤X<3 0.5≤X<1.25 <0.5
Ceiling (100 ft) >30 10≤X≤30 4≤X<10 2≤X<4 <2
Wind Speed (kt) <15 15≤X<25 25≤X<30 ≥30
Wind Gust (kt) <15 15≤X<25 25≤X<35 ≥35
Weather No Wx Reported VCTS -TS,-FZRA TS,FZRA +TS,+FZRA
TAF
KPHX 231720Z 2318/2424 09006KT P6SM FEW120 BKN250
  FM232000 29008KT P6SM FEW100 BKN150
  FM232300 07014G25KT P6SM VCSH BKN100 OVC150
  TEMPO 2323/2401 07025G35KT
  FM240400 09008KT P6SM SCT100 BKN150
  FM242100 27009KT P6SM FEW150


METAR
KPHX 231651Z 09006KT 10SM FEW090 FEW150 SCT180 BKN210 26/02 A2988 RMK AO2 SLP102 SHRA DSNT SE-S T02560017
KPHX 231551Z 06003KT 10SM FEW150 FEW180 BKN210 24/01 A2987 RMK AO2 SLP098 SHRA DSNT SE-S T02390011
KPHX 231451Z 11005KT 10SM FEW150 FEW180 SCT210 22/01 A2986 RMK AO2 SLP096 SHRA DSNT E-S T02170011 51015

Radar Display
Forecast Discussion